createdAt,value
2022-12-04T00:00:54.280Z,0.00
2022-12-04T00:01:52.562Z,0.00
2022-12-04T00:02:53.075Z,0.00
2022-12-04T00:03:52.228Z,0.00
2022-12-04T00:04:55.856Z,0.00
2022-12-04T00:05:55.037Z,0.00
2022-12-04T00:06:58.980Z,0.00
2022-12-04T00:07:53.755Z,0.00
2022-12-04T00:08:51.956Z,0.00
2022-12-04T00:09:55.716Z,0.00
2022-12-04T00:10:55.197Z,0.00
2022-12-04T00:11:52.016Z,0.00
2022-12-04T00:12:55.511Z,0.00
2022-12-04T00:13:52.791Z,0.00
2022-12-04T00:15:54.567Z,0.00
2022-12-04T00:16:53.291Z,0.00
2022-12-04T00:17:53.258Z,0.00
2022-12-04T00:18:53.637Z,0.00
2022-12-04T00:19:54.215Z,0.00
2022-12-04T00:20:52.296Z,0.00
2022-12-04T00:21:53.836Z,0.00
2022-12-04T00:22:53.037Z,0.00
2022-12-04T00:23:53.396Z,0.00
2022-12-04T00:24:51.681Z,0.00
2022-12-04T00:25:52.057Z,0.00
2022-12-04T00:26:52.418Z,0.00
2022-12-04T00:27:51.777Z,0.00
2022-12-04T00:28:51.822Z,0.00
2022-12-04T00:29:52.628Z,0.00
2022-12-04T00:30:52.457Z,0.00
2022-12-04T00:31:55.896Z,0.00
2022-12-04T00:32:54.300Z,0.00
2022-12-04T00:33:52.521Z,0.00
2022-12-04T00:34:51.863Z,0.00
2022-12-04T00:35:55.348Z,0.00
2022-12-04T00:36:51.566Z,0.00
2022-12-04T00:37:55.307Z,0.00
2022-12-04T00:38:54.236Z,0.00
2022-12-04T00:39:51.698Z,0.00
2022-12-04T00:40:55.046Z,0.00
2022-12-04T00:41:52.287Z,0.00
2022-12-04T00:42:53.696Z,0.00
2022-12-04T00:43:52.027Z,0.00
2022-12-04T00:44:52.328Z,0.00
2022-12-04T00:45:54.820Z,0.00
2022-12-04T00:46:55.157Z,0.00
2022-12-04T00:47:52.527Z,0.00
2022-12-04T00:48:51.718Z,0.00
2022-12-04T00:49:55.573Z,0.00
2022-12-04T00:50:54.516Z,0.00
2022-12-04T00:51:55.831Z,0.00
2022-12-04T00:52:52.077Z,0.00
2022-12-04T00:53:55.508Z,0.00
2022-12-04T00:54:54.897Z,0.00
2022-12-04T00:55:52.137Z,0.00
2022-12-04T00:56:52.407Z,0.00
2022-12-04T00:57:55.761Z,0.00
2022-12-04T00:58:53.176Z,0.00
2022-12-04T00:59:55.040Z,0.00
2022-12-04T01:00:55.203Z,0.00
2022-12-04T01:01:51.237Z,0.00
2022-12-04T01:02:53.690Z,0.00
2022-12-04T01:03:54.927Z,0.00
2022-12-04T01:04:53.331Z,0.00
2022-12-04T01:05:51.607Z,0.00
2022-12-04T01:06:51.976Z,0.00
2022-12-04T01:07:52.398Z,0.00
2022-12-04T01:08:53.591Z,0.00
2022-12-04T01:09:52.107Z,0.00
2022-12-04T01:10:51.292Z,0.00
2022-12-04T01:12:20.734Z,0.00
2022-12-04T01:12:52.037Z,0.00
2022-12-04T01:13:51.296Z,0.00
2022-12-04T01:15:17.687Z,0.00
2022-12-04T01:15:51.002Z,0.00
2022-12-04T01:16:52.512Z,0.00
2022-12-04T01:17:52.087Z,0.00
2022-12-04T01:18:51.047Z,0.00
2022-12-04T01:19:51.417Z,0.00
2022-12-04T01:20:51.786Z,0.00
2022-12-04T01:21:52.186Z,0.00
2022-12-04T01:22:52.890Z,0.00
2022-12-04T01:23:51.836Z,0.00
2022-12-04T01:24:51.201Z,0.00
2022-12-04T01:25:51.531Z,0.00
2022-12-04T01:26:54.006Z,0.00
2022-12-04T01:27:51.260Z,0.00
2022-12-04T01:28:51.711Z,0.00
2022-12-04T01:29:52.153Z,0.00
2022-12-04T01:30:51.357Z,0.00
2022-12-04T01:31:51.812Z,0.00
2022-12-04T01:32:52.178Z,0.00
2022-12-04T01:33:52.542Z,0.00
2022-12-04T01:34:52.777Z,0.00
2022-12-04T01:35:57.618Z,0.00
2022-12-04T01:36:52.755Z,0.00
2022-12-04T01:37:51.049Z,0.00
2022-12-04T01:38:58.806Z,0.00
2022-12-04T01:39:54.089Z,0.00
2022-12-04T01:40:52.164Z,0.00
2022-12-04T01:41:52.526Z,0.00
2022-12-04T01:42:50.816Z,0.00
2022-12-04T01:43:58.491Z,0.00
2022-12-04T01:44:58.018Z,0.00
2022-12-04T01:45:53.042Z,0.00
2022-12-04T01:46:51.307Z,0.00
2022-12-04T01:47:57.913Z,0.00
2022-12-04T01:48:58.293Z,0.00
2022-12-04T01:49:57.712Z,0.00
2022-12-04T01:50:51.722Z,0.00
2022-12-04T01:51:51.136Z,0.00
2022-12-04T01:52:54.791Z,0.00
2022-12-04T01:53:54.910Z,0.00
2022-12-04T01:54:52.198Z,0.00
2022-12-04T01:55:50.527Z,0.00
2022-12-04T01:56:54.075Z,0.00
2022-12-04T01:57:51.282Z,0.00
2022-12-04T01:58:51.682Z,0.00
2022-12-04T01:59:51.026Z,0.00
2022-12-04T02:00:51.812Z,0.00
2022-12-04T02:01:54.051Z,0.00
2022-12-04T02:02:53.603Z,0.00
2022-12-04T02:03:50.472Z,0.00
2022-12-04T02:04:54.016Z,0.00
2022-12-04T02:05:51.244Z,0.00
2022-12-04T02:06:50.605Z,0.00
2022-12-04T02:07:54.293Z,0.00
2022-12-04T02:08:53.432Z,0.00
2022-12-04T02:09:50.670Z,0.00
2022-12-04T02:11:44.149Z,0.00
2022-12-04T02:11:50.378Z,0.00
2022-12-04T02:12:51.826Z,0.00
2022-12-04T02:13:51.187Z,0.00
2022-12-04T02:14:54.561Z,0.00
2022-12-04T02:15:52.992Z,0.00
2022-12-04T02:16:50.257Z,0.00
2022-12-04T02:18:22.887Z,0.00
2022-12-04T02:18:50.999Z,0.00
2022-12-04T02:19:50.412Z,0.00
2022-12-04T02:20:53.861Z,0.00
2022-12-04T02:22:16.112Z,0.00
2022-12-04T02:22:50.461Z,0.00
2022-12-04T02:23:50.846Z,0.00
2022-12-04T02:24:50.582Z,0.00
2022-12-04T02:25:50.722Z,0.00
2022-12-04T02:26:50.986Z,0.00
2022-12-04T02:27:50.321Z,0.00
2022-12-04T02:28:51.741Z,0.00
2022-12-04T02:29:50.031Z,0.00
2022-12-04T02:30:51.378Z,0.00
2022-12-04T02:31:50.826Z,0.00
2022-12-04T02:32:50.091Z,0.00
2022-12-04T02:33:51.422Z,0.00
2022-12-04T02:34:50.841Z,0.00
2022-12-04T02:35:50.178Z,0.00
2022-12-04T02:36:51.486Z,0.00
2022-12-04T02:37:50.911Z,0.00
2022-12-04T02:38:51.184Z,0.00
2022-12-04T02:39:51.530Z,0.00
2022-12-04T02:40:51.012Z,0.00
2022-12-04T02:41:53.450Z,0.00
2022-12-04T02:42:50.713Z,0.00
2022-12-04T02:44:06.891Z,0.00
2022-12-04T02:44:56.721Z,0.00
2022-12-04T02:45:50.864Z,0.00
2022-12-04T02:46:57.462Z,0.00
2022-12-04T02:47:56.812Z,0.00
2022-12-04T02:48:51.996Z,0.00
2022-12-04T02:49:50.337Z,0.00
2022-12-04T02:50:50.685Z,0.00
2022-12-04T02:51:50.025Z,0.00
2022-12-04T02:52:50.426Z,0.00
2022-12-04T02:53:50.797Z,0.00
2022-12-04T02:54:50.178Z,0.00
2022-12-04T02:55:50.577Z,0.00
2022-12-04T02:56:49.876Z,0.00
2022-12-04T02:57:50.261Z,0.00
2022-12-04T02:58:51.721Z,0.00
2022-12-04T02:59:50.826Z,0.00
2022-12-04T03:00:51.215Z,0.00
2022-12-04T03:01:51.640Z,0.00
2022-12-04T03:02:50.965Z,0.00
2022-12-04T03:03:51.251Z,0.00
2022-12-04T03:04:56.865Z,0.00
2022-12-04T03:05:57.291Z,0.00
2022-12-04T03:06:56.841Z,0.00
2022-12-04T03:07:49.769Z,0.00
2022-12-04T03:08:51.051Z,0.00
2022-12-04T03:09:49.596Z,0.00
2022-12-04T03:11:54.559Z,0.00
2022-12-04T03:12:00.763Z,0.00
2022-12-04T03:13:01.147Z,0.00
2022-12-04T03:14:03.641Z,0.00
2022-12-04T03:15:03.393Z,0.00
2022-12-04T03:16:00.656Z,0.00
2022-12-04T03:17:01.128Z,0.00
2022-12-04T03:18:03.500Z,0.00
2022-12-04T03:19:03.212Z,0.00
2022-12-04T03:20:00.467Z,0.00
2022-12-04T03:21:01.905Z,0.00
2022-12-04T03:22:00.206Z,0.00
2022-12-04T03:23:01.696Z,0.00
2022-12-04T03:24:00.981Z,0.00
2022-12-04T03:25:01.336Z,0.00
2022-12-04T03:26:00.713Z,0.00
2022-12-04T03:27:01.115Z,0.00
2022-12-04T03:28:01.476Z,0.00
2022-12-04T03:29:02.392Z,0.00
2022-12-04T03:30:03.263Z,0.00
2022-12-04T03:31:00.643Z,0.00
2022-12-04T03:32:00.906Z,0.00
2022-12-04T03:33:03.371Z,0.00
2022-12-04T03:34:03.901Z,0.00
2022-12-04T03:35:03.091Z,0.00
2022-12-04T03:36:00.311Z,0.00
2022-12-04T03:37:00.701Z,0.00
2022-12-04T03:38:00.024Z,0.00
2022-12-04T03:39:03.552Z,0.00
2022-12-04T03:40:00.817Z,0.00
2022-12-04T03:41:01.121Z,0.00
2022-12-04T03:42:01.513Z,0.00
2022-12-04T03:43:00.831Z,0.00
2022-12-04T03:44:03.281Z,0.00
2022-12-04T03:45:03.951Z,0.00
2022-12-04T03:45:59.918Z,0.00
2022-12-04T03:47:01.260Z,0.00
2022-12-04T03:48:00.581Z,0.00
2022-12-04T03:49:03.065Z,0.00
2022-12-04T03:50:01.788Z,0.00
2022-12-04T03:51:00.313Z,0.00
2022-12-04T03:52:00.457Z,0.00
2022-12-04T03:53:02.892Z,0.00
2022-12-04T03:54:03.242Z,0.00
2022-12-04T03:55:01.994Z,0.00
2022-12-04T03:55:59.851Z,0.00
2022-12-04T03:57:00.227Z,0.00
2022-12-04T03:58:31.781Z,0.00
2022-12-04T03:58:59.852Z,0.00
2022-12-04T04:00:01.675Z,0.00
2022-12-04T04:01:00.632Z,0.00
2022-12-04T04:02:00.720Z,0.00
2022-12-04T04:03:00.095Z,0.00
2022-12-04T04:04:00.351Z,0.00
2022-12-04T04:04:59.684Z,0.00
2022-12-04T04:06:00.062Z,0.00
2022-12-04T04:07:00.432Z,0.00
2022-12-04T04:08:01.062Z,0.00
2022-12-04T04:09:00.132Z,0.00
2022-12-04T04:10:00.517Z,0.00
2022-12-04T04:11:01.938Z,0.00
2022-12-04T04:12:00.206Z,0.00
2022-12-04T04:13:02.951Z,0.00
2022-12-04T04:14:00.126Z,0.00
2022-12-04T04:15:02.605Z,0.00
2022-12-04T04:15:59.930Z,0.00
2022-12-04T04:17:00.237Z,0.00
2022-12-04T04:17:59.597Z,0.00
2022-12-04T04:19:00.105Z,0.00
2022-12-04T04:20:03.430Z,0.00
2022-12-04T04:20:59.738Z,0.00
2022-12-04T04:22:06.417Z,0.00
2022-12-04T04:22:59.491Z,0.00
2022-12-04T04:23:59.863Z,0.00
2022-12-04T04:25:00.372Z,0.00
2022-12-04T04:25:59.601Z,0.00
2022-12-04T04:27:02.005Z,0.00
2022-12-04T04:28:01.350Z,0.00
2022-12-04T04:28:59.761Z,0.00
2022-12-04T04:30:00.269Z,0.00
2022-12-04T04:31:06.953Z,0.00
2022-12-04T04:31:59.893Z,0.00
2022-12-04T04:33:00.296Z,0.00
2022-12-04T04:34:00.642Z,0.00
2022-12-04T04:35:00.966Z,0.00
2022-12-04T04:35:59.391Z,0.00
2022-12-04T04:36:59.770Z,0.00
2022-12-04T04:38:14.701Z,0.00
2022-12-04T04:38:59.556Z,0.00
2022-12-04T04:40:27.941Z,0.00
2022-12-04T04:40:59.174Z,0.00
2022-12-04T04:41:59.647Z,0.00
2022-12-04T04:42:59.973Z,0.00
2022-12-04T04:44:02.372Z,0.00
2022-12-04T04:44:59.646Z,0.00
2022-12-04T04:46:02.133Z,0.00
2022-12-04T04:46:59.201Z,0.00
2022-12-04T04:48:00.892Z,0.00
2022-12-04T04:49:14.531Z,0.00
2022-12-04T04:50:01.342Z,0.00
2022-12-04T04:50:59.644Z,0.00
2022-12-04T04:52:06.251Z,0.00
2022-12-04T04:53:00.420Z,0.00
2022-12-04T04:54:01.811Z,0.00
2022-12-04T04:55:00.101Z,0.00
2022-12-04T04:55:59.482Z,0.00
2022-12-04T04:56:59.811Z,0.00
2022-12-04T04:58:00.192Z,0.00
2022-12-04T04:59:52.721Z,0.00
2022-12-04T04:59:59.890Z,0.00
2022-12-04T05:00:59.226Z,0.00
2022-12-04T05:02:14.279Z,0.00
2022-12-04T05:03:00.370Z,0.00
2022-12-04T05:03:59.682Z,0.00
2022-12-04T05:05:25.145Z,0.00
2022-12-04T05:05:59.446Z,0.00
2022-12-04T05:06:59.811Z,0.00
2022-12-04T05:07:59.468Z,0.00
2022-12-04T05:09:24.491Z,0.00
2022-12-04T05:09:59.206Z,0.00
2022-12-04T05:11:00.301Z,0.00
2022-12-04T05:11:59.731Z,0.00
2022-12-04T05:13:32.256Z,0.00
2022-12-04T05:13:59.352Z,0.00
2022-12-04T05:14:59.777Z,0.00
2022-12-04T05:16:02.301Z,0.00
2022-12-04T05:17:01.935Z,0.00
2022-12-04T05:17:59.796Z,0.00
2022-12-04T05:19:00.192Z,0.00
2022-12-04T05:20:00.044Z,0.00
2022-12-04T05:20:59.907Z,0.00
2022-12-04T05:21:59.356Z,0.00
2022-12-04T05:23:02.776Z,0.00
2022-12-04T05:24:02.117Z,0.00
2022-12-04T05:24:59.497Z,0.00
2022-12-04T05:25:59.796Z,0.00
2022-12-04T05:26:59.127Z,0.00
2022-12-04T05:27:59.827Z,0.00
2022-12-04T05:28:58.873Z,0.00
2022-12-04T05:29:59.529Z,0.00
2022-12-04T05:30:58.623Z,0.00
2022-12-04T05:32:00.024Z,0.00
2022-12-04T05:33:02.111Z,0.00
2022-12-04T05:33:58.702Z,0.00
2022-12-04T05:35:13.709Z,0.00
2022-12-04T05:35:59.566Z,0.00
2022-12-04T05:37:01.957Z,0.00
2022-12-04T05:38:01.288Z,0.00
2022-12-04T05:38:58.655Z,0.00
2022-12-04T05:39:59.983Z,0.00
2022-12-04T05:40:59.317Z,0.00
2022-12-04T05:41:59.762Z,0.00
2022-12-04T05:43:00.107Z,0.00
2022-12-04T05:44:00.487Z,0.00
2022-12-04T05:44:58.832Z,0.00
2022-12-04T05:46:02.282Z,0.00
2022-12-04T05:46:58.564Z,0.00
2022-12-04T05:48:00.966Z,0.00
2022-12-04T05:48:59.275Z,0.00
2022-12-04T05:49:58.810Z,0.00
2022-12-04T05:51:14.541Z,0.00
2022-12-04T05:51:58.372Z,0.00
2022-12-04T05:53:00.316Z,0.00
2022-12-04T05:53:58.621Z,0.00
2022-12-04T05:55:02.261Z,0.00
2022-12-04T05:55:58.406Z,0.00
2022-12-04T05:57:13.375Z,0.00
2022-12-04T05:58:00.252Z,0.00
2022-12-04T05:58:58.592Z,0.00
2022-12-04T06:00:00.040Z,0.00
2022-12-04T06:00:58.417Z,0.00
2022-12-04T06:01:58.741Z,0.00
2022-12-04T06:02:59.176Z,0.00
2022-12-04T06:04:13.032Z,0.00
2022-12-04T06:05:14.426Z,0.00
2022-12-04T06:05:59.261Z,0.00
2022-12-04T06:06:58.644Z,0.00
2022-12-04T06:08:13.613Z,0.00
2022-12-04T06:09:00.471Z,0.00
2022-12-04T06:09:58.963Z,0.00
2022-12-04T06:11:00.276Z,0.00
2022-12-04T06:11:58.520Z,0.00
2022-12-04T06:12:58.896Z,0.00
2022-12-04T06:13:58.303Z,0.00
2022-12-04T06:15:05.928Z,0.00
2022-12-04T06:15:59.109Z,0.00
2022-12-04T06:16:58.467Z,0.00
2022-12-04T06:17:59.711Z,0.00
2022-12-04T06:18:58.116Z,0.00
2022-12-04T06:19:58.997Z,0.00
2022-12-04T06:20:59.933Z,0.00
2022-12-04T06:21:59.266Z,0.00
2022-12-04T06:22:58.632Z,0.00
2022-12-04T06:23:57.933Z,0.00
2022-12-04T06:24:58.352Z,0.00
2022-12-04T06:26:05.245Z,0.00
2022-12-04T06:27:59.547Z,0.00
2022-12-04T06:29:13.482Z,0.00
2022-12-04T06:30:31.552Z,0.00
2022-12-04T06:30:58.704Z,0.00
2022-12-04T06:31:58.103Z,0.00
2022-12-04T06:32:59.413Z,0.00
2022-12-04T06:33:59.383Z,0.00
2022-12-04T06:34:59.261Z,0.00
2022-12-04T06:35:59.557Z,0.00
2022-12-04T06:37:00.992Z,0.00
2022-12-04T06:37:59.375Z,0.00
2022-12-04T06:38:58.678Z,0.00
2022-12-04T06:39:58.423Z,0.00
2022-12-04T06:40:59.405Z,0.00
2022-12-04T06:41:57.806Z,0.00
2022-12-04T06:42:58.211Z,0.00
2022-12-04T06:43:58.558Z,0.00
2022-12-04T06:44:57.952Z,0.00
2022-12-04T06:45:58.529Z,0.00
2022-12-04T06:47:00.917Z,0.00
2022-12-04T06:47:58.119Z,0.00
2022-12-04T06:48:58.498Z,0.00
2022-12-04T06:49:59.063Z,0.00
2022-12-04T06:50:58.216Z,0.00
2022-12-04T06:51:57.761Z,0.00
2022-12-04T06:53:02.275Z,0.00
2022-12-04T06:53:59.361Z,0.00
2022-12-04T06:54:57.746Z,0.00
2022-12-04T06:55:58.147Z,0.00
2022-12-04T06:56:57.536Z,0.00
2022-12-04T06:58:05.148Z,0.00
2022-12-04T06:58:58.288Z,0.00
2022-12-04T06:59:58.782Z,0.00
2022-12-04T07:00:58.125Z,0.00
2022-12-04T07:01:58.479Z,0.00
2022-12-04T07:02:57.852Z,0.00
2022-12-04T07:03:59.142Z,0.00
2022-12-04T07:04:57.552Z,0.00
2022-12-04T07:05:58.020Z,0.00
2022-12-04T07:06:58.436Z,0.00
2022-12-04T07:08:12.311Z,0.00
2022-12-04T07:08:58.066Z,0.00
2022-12-04T07:09:59.507Z,0.00
2022-12-04T07:10:59.404Z,0.00
2022-12-04T07:11:58.296Z,0.00
2022-12-04T07:12:58.612Z,0.00
2022-12-04T07:13:59.047Z,0.00
2022-12-04T07:15:04.612Z,0.00
2022-12-04T07:15:57.730Z,0.00
2022-12-04T07:16:59.184Z,0.00
2022-12-04T07:17:58.496Z,0.00
2022-12-04T07:18:57.836Z,0.00
2022-12-04T07:20:12.807Z,0.00
2022-12-04T07:20:59.661Z,0.00
2022-12-04T07:21:57.949Z,0.00
2022-12-04T07:22:58.584Z,0.00
2022-12-04T07:24:12.306Z,0.00
2022-12-04T07:25:04.313Z,0.00
2022-12-04T07:26:00.532Z,0.00
2022-12-04T07:26:57.827Z,0.00
2022-12-04T07:27:58.271Z,0.00
2022-12-04T07:28:57.563Z,0.00
2022-12-04T07:29:58.181Z,0.00
2022-12-04T07:30:59.470Z,0.00
2022-12-04T07:31:57.772Z,0.00
2022-12-04T07:32:59.167Z,0.00
2022-12-04T07:33:57.537Z,0.00
2022-12-04T07:35:13.362Z,0.00
2022-12-04T07:36:00.387Z,0.00
2022-12-04T07:36:57.667Z,0.00
2022-12-04T07:38:12.637Z,0.00
2022-12-04T07:38:57.434Z,0.00
2022-12-04T07:40:12.396Z,0.00
2022-12-04T07:41:12.025Z,0.00
2022-12-04T07:41:59.657Z,0.00
2022-12-04T07:42:56.920Z,0.00
2022-12-04T07:44:11.897Z,0.00
2022-12-04T07:45:22.722Z,0.00
2022-12-04T07:45:57.098Z,0.00
2022-12-04T07:47:25.686Z,0.00
2022-12-04T07:47:57.934Z,0.00
2022-12-04T07:48:59.302Z,0.00
2022-12-04T07:49:58.068Z,0.00
2022-12-04T07:50:57.992Z,0.00
2022-12-04T07:51:57.336Z,0.00
2022-12-04T07:52:57.826Z,0.00
2022-12-04T07:54:02.798Z,0.00
2022-12-04T07:54:58.441Z,0.00
2022-12-04T07:55:57.843Z,0.00
2022-12-04T07:56:57.222Z,0.00
2022-12-04T07:57:57.639Z,0.00
2022-12-04T07:58:57.048Z,0.00
2022-12-04T07:59:57.660Z,0.00
2022-12-04T08:00:57.794Z,0.00
2022-12-04T08:01:57.191Z,0.00
2022-12-04T08:02:58.507Z,0.00
2022-12-04T08:03:57.051Z,0.00
2022-12-04T08:04:57.403Z,0.00
2022-12-04T08:05:56.682Z,0.00
2022-12-04T08:06:57.125Z,0.00
2022-12-04T08:07:58.492Z,0.00
2022-12-04T08:08:56.837Z,0.00
2022-12-04T08:09:57.494Z,0.00
2022-12-04T08:10:56.714Z,0.00
2022-12-04T08:11:58.012Z,0.00
2022-12-04T08:12:58.427Z,0.00
2022-12-04T08:13:56.832Z,0.00
2022-12-04T08:14:57.228Z,5.62
2022-12-04T08:15:56.796Z,5.62
2022-12-04T08:16:57.061Z,5.62
2022-12-04T08:17:58.427Z,5.62
2022-12-04T08:18:57.848Z,5.62
2022-12-04T08:19:58.545Z,5.62
2022-12-04T08:20:57.756Z,5.62
2022-12-04T08:21:56.952Z,5.62
2022-12-04T08:22:58.321Z,5.62
2022-12-04T08:24:01.888Z,5.62
2022-12-04T08:24:57.152Z,5.62
2022-12-04T08:25:56.497Z,5.62
2022-12-04T08:26:57.106Z,5.62
2022-12-04T08:27:57.342Z,5.62
2022-12-04T08:28:56.695Z,5.62
2022-12-04T08:30:47.108Z,5.62
2022-12-04T08:30:56.500Z,5.62
2022-12-04T08:31:56.852Z,5.62
2022-12-04T08:32:57.301Z,5.62
2022-12-04T08:34:11.223Z,5.62
2022-12-04T08:35:11.598Z,5.62
2022-12-04T08:35:56.394Z,5.62
2022-12-04T08:36:56.787Z,5.62
2022-12-04T08:37:57.167Z,5.62
2022-12-04T08:38:56.779Z,5.62
2022-12-04T08:39:58.288Z,5.62
2022-12-04T08:40:57.268Z,5.62
2022-12-04T08:41:57.336Z,5.62
2022-12-04T08:42:58.052Z,5.62
2022-12-04T08:43:57.669Z,5.62
2022-12-04T08:44:57.921Z,5.62
2022-12-04T08:45:58.332Z,5.62
2022-12-04T08:46:56.646Z,5.62
2022-12-04T08:47:57.026Z,5.62
2022-12-04T08:48:57.431Z,5.62
2022-12-04T08:49:58.222Z,5.62
2022-12-04T08:50:56.137Z,5.62
2022-12-04T08:51:57.453Z,5.62
2022-12-04T08:53:11.478Z,5.62
2022-12-04T08:53:57.281Z,5.62
2022-12-04T08:54:56.718Z,5.62
2022-12-04T08:55:57.162Z,5.62
2022-12-04T08:56:56.406Z,5.62
2022-12-04T08:57:56.877Z,5.62
2022-12-04T08:59:11.731Z,5.62
2022-12-04T08:59:58.052Z,5.62
2022-12-04T09:00:57.083Z,5.62
2022-12-04T09:01:56.357Z,11.25
2022-12-04T09:03:11.228Z,11.25
2022-12-04T09:03:56.041Z,11.25
2022-12-04T09:04:56.477Z,11.25
2022-12-04T09:05:56.732Z,11.25
2022-12-04T09:06:56.077Z,11.25
2022-12-04T09:07:56.568Z,11.25
2022-12-04T09:08:59.916Z,11.25
2022-12-04T09:09:56.527Z,11.25
2022-12-04T09:10:56.583Z,11.25
2022-12-04T09:11:55.957Z,11.25
2022-12-04T09:12:56.317Z,11.25
2022-12-04T09:13:56.862Z,11.25
2022-12-04T09:14:56.041Z,11.25
2022-12-04T09:15:56.582Z,11.25
2022-12-04T09:16:55.763Z,11.25
2022-12-04T09:17:56.156Z,11.25
2022-12-04T09:18:56.541Z,11.25
2022-12-04T09:20:00.665Z,11.25
2022-12-04T09:20:57.246Z,11.25
2022-12-04T09:21:56.652Z,11.25
2022-12-04T09:23:05.234Z,11.25
2022-12-04T09:23:57.354Z,16.88
2022-12-04T09:24:56.933Z,16.88
2022-12-04T09:25:57.052Z,16.88
2022-12-04T09:26:56.801Z,16.88
2022-12-04T09:27:56.882Z,16.88
2022-12-04T09:28:59.351Z,16.88
2022-12-04T09:29:58.094Z,16.88
2022-12-04T09:30:55.959Z,22.50
2022-12-04T09:31:56.297Z,22.50
2022-12-04T09:32:55.768Z,22.50
2022-12-04T09:34:02.361Z,22.50
2022-12-04T09:34:56.402Z,22.50
2022-12-04T09:35:55.791Z,22.50
2022-12-04T09:36:56.153Z,22.50
2022-12-04T09:37:55.552Z,22.50
2022-12-04T09:38:56.772Z,22.50
2022-12-04T09:39:57.406Z,22.50
2022-12-04T09:40:55.512Z,22.50
2022-12-04T09:41:56.117Z,22.50
2022-12-04T09:42:56.276Z,22.50
2022-12-04T09:43:55.636Z,22.50
2022-12-04T09:44:57.022Z,22.50
2022-12-04T09:45:55.444Z,22.50
2022-12-04T09:46:55.918Z,28.12
2022-12-04T09:47:56.363Z,28.12
2022-12-04T09:48:55.647Z,22.50
2022-12-04T09:49:56.284Z,22.50
2022-12-04T09:50:59.662Z,22.50
2022-12-04T09:51:55.662Z,22.50
2022-12-04T09:52:56.079Z,22.50
2022-12-04T09:53:55.523Z,28.12
2022-12-04T09:54:56.861Z,28.12
2022-12-04T09:55:55.306Z,33.75
2022-12-04T09:56:55.687Z,33.75
2022-12-04T09:58:01.605Z,33.75
2022-12-04T09:58:56.403Z,33.75
2022-12-04T09:59:57.080Z,39.38
2022-12-04T10:00:57.099Z,39.38
2022-12-04T10:01:55.543Z,39.38
2022-12-04T10:02:56.131Z,45.00
2022-12-04T10:03:56.921Z,45.00
2022-12-04T10:04:55.669Z,45.00
2022-12-04T10:05:56.027Z,39.38
2022-12-04T10:06:55.353Z,45.00
2022-12-04T10:07:55.808Z,45.00
2022-12-04T10:08:57.063Z,45.00
2022-12-04T10:09:56.760Z,45.00
2022-12-04T10:10:55.782Z,39.38
2022-12-04T10:11:56.177Z,39.38
2022-12-04T10:12:55.522Z,39.38
2022-12-04T10:13:56.841Z,39.38
2022-12-04T10:14:55.177Z,45.00
2022-12-04T10:15:55.770Z,45.00
2022-12-04T10:16:55.906Z,45.00
2022-12-04T10:17:55.277Z,45.00
2022-12-04T10:18:55.623Z,39.38
2022-12-04T10:20:10.649Z,39.38
2022-12-04T10:20:55.331Z,39.38
2022-12-04T10:21:55.858Z,39.38
2022-12-04T10:23:02.256Z,39.38
2022-12-04T10:23:55.447Z,39.38
2022-12-04T10:24:55.736Z,39.38
2022-12-04T10:25:55.060Z,39.38
2022-12-04T10:26:56.362Z,39.38
2022-12-04T10:27:55.898Z,39.38
2022-12-04T10:28:55.674Z,39.38
2022-12-04T10:29:56.001Z,39.38
2022-12-04T10:30:55.851Z,33.75
2022-12-04T10:31:55.232Z,33.75
2022-12-04T10:32:55.533Z,33.75
2022-12-04T10:33:54.963Z,33.75
2022-12-04T10:34:56.201Z,33.75
2022-12-04T10:35:55.606Z,33.75
2022-12-04T10:36:54.868Z,33.75
2022-12-04T10:37:56.247Z,33.75
2022-12-04T10:38:55.749Z,33.75
2022-12-04T10:39:55.279Z,33.75
2022-12-04T10:40:55.326Z,33.75
2022-12-04T10:41:56.628Z,33.75
2022-12-04T10:42:54.967Z,33.75
2022-12-04T10:43:55.787Z,33.75
2022-12-04T10:44:54.986Z,33.75
2022-12-04T10:45:55.004Z,33.75
2022-12-04T10:46:55.883Z,33.75
2022-12-04T10:47:54.713Z,28.12
2022-12-04T10:48:55.112Z,28.12
2022-12-04T10:49:55.944Z,33.75
2022-12-04T10:50:54.757Z,33.75
2022-12-04T10:51:55.103Z,33.75
2022-12-04T10:52:55.466Z,28.12
2022-12-04T10:53:54.774Z,28.12
2022-12-04T10:54:55.266Z,33.75
2022-12-04T10:55:55.577Z,33.75
2022-12-04T10:56:54.801Z,33.75
2022-12-04T10:57:55.186Z,33.75
2022-12-04T10:58:55.507Z,33.75
2022-12-04T10:59:55.328Z,28.12
2022-12-04T11:00:55.257Z,28.12
2022-12-04T11:02:00.394Z,28.12
2022-12-04T11:02:55.835Z,33.75
2022-12-04T11:03:56.077Z,28.12
2022-12-04T11:04:54.501Z,28.12
2022-12-04T11:05:54.851Z,28.12
2022-12-04T11:06:55.363Z,28.12
2022-12-04T11:07:54.667Z,28.12
2022-12-04T11:08:54.941Z,28.12
2022-12-04T11:09:55.579Z,28.12
2022-12-04T11:10:54.622Z,28.12
2022-12-04T11:11:55.027Z,28.12
2022-12-04T11:12:55.368Z,28.12
2022-12-04T11:13:54.707Z,28.12
2022-12-04T11:14:57.253Z,28.12
2022-12-04T11:15:54.381Z,28.12
2022-12-04T11:16:54.742Z,28.12
2022-12-04T11:17:55.066Z,28.12
2022-12-04T11:18:54.492Z,28.12
2022-12-04T11:19:54.972Z,28.12
2022-12-04T11:20:56.072Z,22.50
2022-12-04T11:21:54.397Z,22.50
2022-12-04T11:22:55.759Z,22.50
2022-12-04T11:23:55.657Z,28.12
2022-12-04T11:24:54.502Z,28.12
2022-12-04T11:25:56.484Z,28.12
2022-12-04T11:26:54.137Z,28.12
2022-12-04T11:27:55.512Z,28.12
2022-12-04T11:28:54.856Z,22.50
2022-12-04T11:29:54.662Z,22.50
2022-12-04T11:30:54.734Z,22.50
2022-12-04T11:31:55.088Z,22.50
2022-12-04T11:32:54.272Z,22.50
2022-12-04T11:33:54.581Z,22.50
2022-12-04T11:34:53.952Z,22.50
2022-12-04T11:35:54.377Z,22.50
2022-12-04T11:36:54.946Z,22.50
2022-12-04T11:37:55.011Z,22.50
2022-12-04T11:38:54.347Z,22.50
2022-12-04T11:39:54.969Z,22.50
2022-12-04T11:40:54.002Z,22.50
2022-12-04T11:41:54.428Z,22.50
2022-12-04T11:42:54.660Z,22.50
2022-12-04T11:43:59.344Z,22.50
2022-12-04T11:44:55.362Z,22.50
2022-12-04T11:45:54.686Z,22.50
2022-12-04T11:46:55.220Z,22.50
2022-12-04T11:47:54.567Z,22.50
2022-12-04T11:48:54.777Z,22.50
2022-12-04T11:49:53.977Z,22.50
2022-12-04T11:50:54.326Z,22.50
2022-12-04T11:51:54.691Z,22.50
2022-12-04T11:52:55.282Z,22.50
2022-12-04T11:53:54.310Z,22.50
2022-12-04T11:54:54.757Z,22.50
2022-12-04T11:55:54.074Z,22.50
2022-12-04T11:56:54.412Z,22.50
2022-12-04T11:57:54.697Z,22.50
2022-12-04T11:58:54.038Z,22.50
2022-12-04T11:59:55.653Z,22.50
2022-12-04T12:00:53.596Z,22.50
2022-12-04T12:01:58.153Z,22.50
2022-12-04T12:02:56.604Z,22.50
2022-12-04T12:03:56.878Z,28.12
2022-12-04T12:04:57.086Z,28.12
2022-12-04T12:05:54.317Z,28.12
2022-12-04T12:06:56.780Z,28.12
2022-12-04T12:07:59.095Z,28.12
2022-12-04T12:08:55.452Z,28.12
2022-12-04T12:09:55.975Z,28.12
2022-12-04T12:10:54.126Z,28.12
2022-12-04T12:11:54.477Z,28.12
2022-12-04T12:12:54.746Z,28.12
2022-12-04T12:13:54.046Z,28.12
2022-12-04T12:14:55.001Z,28.12
2022-12-04T12:15:53.711Z,28.12
2022-12-04T12:17:57.242Z,28.12
2022-12-04T12:18:56.856Z,28.12
2022-12-04T12:19:54.355Z,28.12
2022-12-04T12:20:56.566Z,22.50
2022-12-04T12:21:53.762Z,22.50
2022-12-04T12:22:55.207Z,22.50
2022-12-04T12:23:53.443Z,22.50
2022-12-04T12:24:57.064Z,22.50
2022-12-04T12:25:54.197Z,22.50
2022-12-04T12:26:54.673Z,22.50
2022-12-04T12:27:53.765Z,22.50
2022-12-04T12:28:54.196Z,22.50
2022-12-04T12:29:54.783Z,22.50
2022-12-04T12:30:54.819Z,16.88
2022-12-04T12:31:54.285Z,16.88
2022-12-04T12:32:53.479Z,16.88
2022-12-04T12:33:53.747Z,16.88
2022-12-04T12:34:54.208Z,16.88
2022-12-04T12:35:54.376Z,16.88
2022-12-04T12:36:59.300Z,11.25
2022-12-04T12:37:54.248Z,11.25
2022-12-04T12:38:53.472Z,11.25
2022-12-04T12:39:54.363Z,11.25
2022-12-04T12:40:53.170Z,11.25
2022-12-04T12:41:53.471Z,11.25
2022-12-04T12:42:58.147Z,11.25
2022-12-04T12:43:53.166Z,11.25
2022-12-04T12:44:53.521Z,11.25
2022-12-04T12:45:54.802Z,11.25
2022-12-04T12:46:53.204Z,11.25
2022-12-04T12:47:53.616Z,11.25
2022-12-04T12:48:58.322Z,11.25
2022-12-04T12:49:54.487Z,11.25
2022-12-04T12:51:14.939Z,11.25
2022-12-04T12:52:00.236Z,11.25
2022-12-04T12:52:53.336Z,11.25
2022-12-04T12:54:00.102Z,11.25
2022-12-04T12:54:53.047Z,11.25
2022-12-04T12:55:54.487Z,11.25
2022-12-04T12:56:53.836Z,11.25
2022-12-04T12:57:54.126Z,11.25
2022-12-04T12:58:53.422Z,11.25
2022-12-04T12:59:56.257Z,11.25
2022-12-04T13:00:53.145Z,11.25
2022-12-04T13:02:00.527Z,11.25
2022-12-04T13:02:53.941Z,11.25
2022-12-04T13:03:56.318Z,11.25
2022-12-04T13:04:56.667Z,11.25
2022-12-04T13:05:56.081Z,11.25
2022-12-04T13:06:55.841Z,11.25
2022-12-04T13:07:55.798Z,11.25
2022-12-04T13:08:52.993Z,11.25
2022-12-04T13:09:54.710Z,11.25
2022-12-04T13:10:54.782Z,11.25
2022-12-04T13:11:53.086Z,11.25
2022-12-04T13:12:54.461Z,11.25
2022-12-04T13:13:53.767Z,11.25